메인 페이지
METAR-TAF:

METAR-TAF

공항 :

페어뱅크스, 알래스카, 미국

위도: 64-48-14N, 경도: 147-52-34W, 고도: 132m

현재 날씨관측

예보는 15분 전, 04:53시(UTC)에 발표되었습니다.
남서3kt
온도 -11°C
습도 85%
기압 1012 hPa
시정: 2.4km
고도 2200ft 상공 흐림
약한눈, 박무

METAR: PAFA 200453Z 23003KT 1 1/2SM -SN BR OVC022 M11/M13 A2988 RMK AO2 SLP129 T11111133

시각: 20:08 (05:08 UTC)

예보

예보는 5 시간 31분 전, 23:37시(UTC)에 발표되었습니다.
예보 대상 시간: 20일 00시부터 21일 06시까지 (UTC)
kt
시정: 4.8km
고도 1500ft 상공 구름 보통
고도 2500ft 상공 구름 많음
고도 5000ft 상공 흐림
약한눈, 박무
일시적
20일 00시부터 20일 03시까지 (UTC)
시정: 1.6km
고도 1500ft 상공 구름 많음
약한눈, 박무
20일 0300시부터 (UTC)
kt
시정: 2.4km
고도 1500ft 상공 구름 많음
고도 2500ft 상공 흐림
약한눈, 박무
20일 2100시부터 (UTC)
kt
시정: 1.6km
고도 1500ft 상공 구름 보통
고도 2500ft 상공 흐림
약한눈, 박무

TAF: PAFA 192337Z 2000/2106 00000KT 3SM -SN BR SCT015 BKN025 OVC050 TEMPO 2000/2003 1SM -SN BR BKN015 FM200300 00000KT 1 1/2SM -SN BR BKN015 OVC025 FM202100 00000KT 4SM -SN BR SCT015 OVC025

4,000개 이상의 공항 관측 자료 및 예보 (METAR 및 TAF 보고).

지도상에서 검색 가능한 기상관측소가 노란 점과 빨간 점으로 표시되어 있습니다.

기상관측소 명을 보려면 표시 위로 마우스를 이동하세요.

날씨 관측과 예보를 보려면 클릭하세요.

지도 변경 : 확대하려면 엑스 표시가 있는 녹색 버튼, 축소하려면 빼기 표시가 있는 녹색 버튼, 다음 페이지의 지도를 보려면 녹색 화살표를 클릭하세요.


METAR-TAF: